Time;durP1;ratioP1;P1;durP2;ratioP2;P2;SDS_P1;SDS_P2;PMS_P1;PMS_P2;Temp;Humidity;BMP_temperature;BMP_pressure;BME280_temperature;BME280_humidity;BME280_pressure;Samples;Min_cycle;Max_cycle;Signal;HPM_P1;HPM_P2
2023/07/20 00:01:26;;;;;;;3.00;2.70;;;17.30;99.90;;;;;;4960872;28;20079;-79
2023/07/20 00:03:54;;;;;;;5.10;2.72;;;17.20;99.90;;;;;;4957132;28;20031;-81
2023/07/20 00:06:25;;;;;;;3.20;2.85;;;17.20;99.90;;;;;;4959431;28;20520;-79
2023/07/20 00:08:51;;;;;;;4.40;3.35;;;17.20;99.90;;;;;;4961239;28;20754;-79
2023/07/20 00:11:17;;;;;;;5.20;2.80;;;17.20;99.90;;;;;;4961678;28;20062;-79
2023/07/20 00:13:43;;;;;;;4.18;2.88;;;17.20;99.90;;;;;;4952989;29;20078;-80
2023/07/20 00:16:08;;;;;;;3.75;2.63;;;17.20;99.90;;;;;;4960642;28;20135;-79
2023/07/20 00:18:34;;;;;;;4.25;2.63;;;17.20;99.90;;;;;;4959106;28;20043;-80
2023/07/20 00:21:01;;;;;;;3.15;2.63;;;17.20;99.90;;;;;;4966608;28;20371;-81
2023/07/20 00:23:27;;;;;;;6.35;2.78;;;17.20;99.90;;;;;;4956551;29;20459;-82
2023/07/20 00:25:53;;;;;;;4.82;2.95;;;17.20;99.90;;;;;;4970674;28;20081;-81
2023/07/20 00:28:20;;;;;;;3.17;2.88;;;17.10;99.90;;;;;;4972960;28;20038;-80
2023/07/20 00:30:47;;;;;;;4.00;3.33;;;17.10;99.90;;;;;;4980546;28;20033;-80
2023/07/20 00:33:17;;;;;;;4.55;2.97;;;17.10;99.90;;;;;;4980622;28;20133;-80
2023/07/20 00:35:42;;;;;;;5.68;3.03;;;17.10;99.90;;;;;;4973791;28;20023;-80
2023/07/20 00:38:08;;;;;;;6.47;3.33;;;17.10;99.90;;;;;;4959939;28;20054;-80
2023/07/20 00:40:37;;;;;;;7.07;3.78;;;17.10;99.90;;;;;;4969650;28;20090;-80
2023/07/20 00:43:04;;;;;;;5.43;3.38;;;17.10;99.90;;;;;;4976916;28;20077;-80
2023/07/20 00:45:30;;;;;;;7.88;3.92;;;17.00;99.90;;;;;;4986483;28;20042;-80
2023/07/20 00:47:57;;;;;;;5.38;3.28;;;17.00;99.90;;;;;;4976302;28;20043;-80
2023/07/20 00:50:25;;;;;;;5.82;3.55;;;17.00;99.90;;;;;;4967317;28;20178;-79
2023/07/20 00:52:51;;;;;;;4.85;3.50;;;17.00;99.90;;;;;;4962623;28;20137;-79
2023/07/20 00:55:19;;;;;;;6.95;3.85;;;16.90;99.90;;;;;;4954305;28;20035;-80
2023/07/20 00:57:45;;;;;;;5.10;3.53;;;16.90;99.90;;;;;;4968397;28;20489;-80
2023/07/20 01:00:11;;;;;;;6.57;4.00;;;16.80;99.90;;;;;;4966736;28;20038;-79
2023/07/20 01:02:37;;;;;;;4.97;3.55;;;16.70;99.90;;;;;;4957043;28;20039;-79
2023/07/20 01:05:05;;;;;;;5.28;3.88;;;16.60;99.90;;;;;;4959840;28;20248;-80
2023/07/20 01:07:38;;;;;;;5.90;4.10;;;16.60;99.90;;;;;;4965538;28;20501;-82
2023/07/20 01:10:05;;;;;;;7.32;3.30;;;16.50;99.90;;;;;;4964448;28;20077;-80
2023/07/20 01:12:41;;;;;;;7.90;3.58;;;16.50;99.90;;;;;;4975810;28;20034;-80
2023/07/20 01:15:07;;;;;;;6.10;3.80;;;16.50;99.90;;;;;;4972363;28;20098;-79
2023/07/20 01:17:34;;;;;;;5.15;3.90;;;16.50;99.90;;;;;;4977106;28;20050;-80
2023/07/20 01:20:00;;;;;;;4.07;3.67;;;16.40;99.90;;;;;;4976787;28;20035;-80
2023/07/20 01:22:32;;;;;;;7.25;3.85;;;16.40;99.90;;;;;;4957905;28;20019;-81
2023/07/20 01:25:12;;;;;;;4.68;3.53;;;16.40;99.90;;;;;;4967359;28;20031;-81
2023/07/20 01:28:27;;;;;;;5.30;3.35;;;16.30;99.90;;;;;;4963965;28;20023;-81
2023/07/20 01:31:14;;;;;;;4.88;3.30;;;16.20;99.90;;;;;;4952404;28;20043;-81
2023/07/20 01:33:42;;;;;;;4.03;3.28;;;16.20;99.90;;;;;;4977095;28;20031;-79
2023/07/20 01:36:10;;;;;;;5.60;4.07;;;16.20;99.90;;;;;;4954753;28;20039;-79
2023/07/20 01:38:37;;;;;;;4.60;3.42;;;16.20;99.90;;;;;;4954402;28;20045;-81
2023/07/20 01:41:03;;;;;;;5.28;3.97;;;16.20;99.90;;;;;;4962668;28;20738;-81
2023/07/20 01:43:29;;;;;;;6.43;3.75;;;16.20;99.90;;;;;;4963586;28;20398;-79
2023/07/20 01:45:55;;;;;;;6.07;4.05;;;16.20;99.90;;;;;;4977901;28;20038;-83
2023/07/20 01:48:21;;;;;;;4.63;3.75;;;16.20;99.90;;;;;;4977248;28;20062;-81
2023/07/20 01:50:46;;;;;;;7.68;3.97;;;16.20;99.90;;;;;;4966284;28;20433;-81
2023/07/20 01:53:13;;;;;;;4.72;3.85;;;16.10;99.90;;;;;;4963307;28;20510;-81
2023/07/20 01:55:39;;;;;;;4.82;3.60;;;16.10;99.90;;;;;;4965768;28;20027;-80
2023/07/20 01:58:05;;;;;;;5.70;4.32;;;16.00;99.90;;;;;;4963433;28;20038;-80
2023/07/20 02:00:31;;;;;;;6.13;3.83;;;16.00;99.90;;;;;;4980636;28;20031;-81
2023/07/20 02:02:57;;;;;;;8.07;4.03;;;16.00;99.90;;;;;;4959446;28;20470;-81
2023/07/20 02:05:23;;;;;;;4.63;3.78;;;16.00;99.90;;;;;;4963635;28;20093;-80
2023/07/20 02:07:49;;;;;;;7.35;3.97;;;15.90;99.90;;;;;;4957210;28;20047;-79
2023/07/20 02:10:19;;;;;;;4.28;3.80;;;16.00;99.90;;;;;;4965219;28;20043;-80
2023/07/20 02:12:45;;;;;;;5.38;4.07;;;15.90;99.90;;;;;;4963583;28;20031;-79
2023/07/20 02:15:11;;;;;;;5.43;4.03;;;15.90;99.90;;;;;;4962992;28;20123;-81
2023/07/20 02:17:37;;;;;;;7.20;4.28;;;15.80;99.90;;;;;;4970763;28;20034;-80
2023/07/20 02:20:03;;;;;;;6.65;3.85;;;15.80;99.90;;;;;;4962395;28;20183;-80
2023/07/20 02:22:29;;;;;;;5.85;4.43;;;15.80;99.90;;;;;;4966319;28;20530;-81
2023/07/20 02:24:54;;;;;;;7.07;4.55;;;15.80;99.90;;;;;;4964813;28;20037;-80
2023/07/20 02:27:20;;;;;;;5.47;4.15;;;15.70;99.90;;;;;;4965586;28;20035;-79
2023/07/20 02:29:46;;;;;;;5.45;4.20;;;15.70;99.90;;;;;;4964025;28;20038;-78
2023/07/20 02:32:12;;;;;;;6.88;3.85;;;15.60;99.90;;;;;;4961335;28;20561;-78
2023/07/20 02:34:38;;;;;;;5.15;3.85;;;15.60;99.90;;;;;;4963742;28;20117;-80
2023/07/20 02:37:04;;;;;;;5.45;3.88;;;15.60;99.90;;;;;;4965056;28;20118;-79
2023/07/20 02:39:30;;;;;;;5.65;4.60;;;15.50;99.90;;;;;;4947002;28;20219;-80
2023/07/20 02:41:56;;;;;;;5.55;4.35;;;15.50;99.90;;;;;;4956777;28;20777;-81
2023/07/20 02:44:22;;;;;;;5.90;4.43;;;15.40;99.90;;;;;;4961708;28;20676;-79
2023/07/20 02:46:49;;;;;;;5.60;4.40;;;15.30;99.90;;;;;;4962228;28;20031;-79
2023/07/20 02:49:16;;;;;;;6.15;4.55;;;15.30;99.90;;;;;;4965719;28;20027;-79
2023/07/20 02:51:42;;;;;;;5.30;4.40;;;15.20;99.90;;;;;;4965319;28;20031;-80
2023/07/20 02:54:08;;;;;;;7.13;4.53;;;15.20;99.90;;;;;;4971728;28;20093;-79
2023/07/20 02:56:34;;;;;;;6.68;4.20;;;15.20;99.90;;;;;;4959903;28;20091;-80
2023/07/20 02:59:02;;;;;;;6.68;4.60;;;15.20;99.90;;;;;;4963348;28;20434;-80
2023/07/20 03:01:29;;;;;;;5.53;4.07;;;15.30;99.90;;;;;;4979162;28;20031;-79
2023/07/20 03:03:55;;;;;;;4.45;3.92;;;15.30;99.90;;;;;;4964145;28;20035;-81
2023/07/20 03:06:22;;;;;;;4.35;3.83;;;15.30;99.90;;;;;;4960858;28;20155;-79
2023/07/20 03:08:48;;;;;;;6.10;4.40;;;15.30;99.90;;;;;;4964388;28;20035;-78
2023/07/20 03:11:16;;;;;;;4.25;3.78;;;15.30;99.90;;;;;;4961956;28;20077;-82
2023/07/20 03:13:42;;;;;;;4.75;3.63;;;15.30;99.90;;;;;;4964027;28;20073;-79
2023/07/20 03:16:15;;;;;;;4.60;3.67;;;15.30;99.90;;;;;;4959967;28;20144;-82
2023/07/20 03:18:42;;;;;;;4.43;3.60;;;15.30;99.90;;;;;;4973709;28;20027;-83
2023/07/20 03:21:08;;;;;;;5.22;4.10;;;15.40;99.90;;;;;;4963116;28;20113;-83
2023/07/20 03:23:34;;;;;;;4.88;3.28;;;15.40;99.90;;;;;;4975237;28;20042;-83
2023/07/20 03:26:00;;;;;;;4.20;3.75;;;15.40;99.90;;;;;;4958028;28;20421;-80
2023/07/20 03:28:26;;;;;;;5.82;4.00;;;15.50;99.90;;;;;;4967151;28;20086;-82
2023/07/20 03:30:56;;;;;;;4.97;3.88;;;15.40;99.90;;;;;;4967248;28;20069;-81
2023/07/20 03:33:27;;;;;;;8.00;3.45;;;15.50;99.90;;;;;;4969191;28;20556;-80
2023/07/20 03:35:53;;;;;;;5.03;4.13;;;15.50;99.90;;;;;;4974664;28;20027;-80
2023/07/20 03:38:20;;;;;;;4.40;3.75;;;15.50;99.90;;;;;;4959834;28;20135;-80
2023/07/20 03:40:53;;;;;;;3.80;3.40;;;15.60;99.90;;;;;;4965825;28;20054;-81
2023/07/20 03:43:20;;;;;;;5.25;3.88;;;15.60;99.90;;;;;;4964285;28;20082;-80
2023/07/20 03:45:47;;;;;;;5.85;3.72;;;15.60;99.90;;;;;;4966021;28;20030;-80
2023/07/20 03:48:15;;;;;;;3.75;3.10;;;15.60;99.90;;;;;;4960810;28;20051;-80
2023/07/20 03:50:41;;;;;;;4.72;3.75;;;15.60;99.90;;;;;;4963119;28;20100;-80
2023/07/20 03:53:07;;;;;;;4.43;3.40;;;15.60;99.90;;;;;;4958713;28;20063;-80
2023/07/20 03:55:32;;;;;;;5.57;3.92;;;15.60;99.90;;;;;;4963751;28;20034;-81
2023/07/20 03:57:58;;;;;;;4.00;3.60;;;15.60;99.90;;;;;;4971515;28;20561;-80
2023/07/20 04:00:24;;;;;;;3.95;3.55;;;15.50;99.90;;;;;;4966017;28;20043;-83
2023/07/20 04:02:50;;;;;;;4.82;3.90;;;15.50;99.90;;;;;;4964118;28;20046;-83
2023/07/20 04:05:16;;;;;;;6.60;3.72;;;15.60;99.90;;;;;;4973071;28;20034;-82
2023/07/20 04:07:42;;;;;;;5.43;3.75;;;15.60;99.90;;;;;;4964260;28;20062;-83
2023/07/20 04:10:08;;;;;;;5.57;3.85;;;15.60;99.90;;;;;;4970794;28;20089;-80
2023/07/20 04:12:35;;;;;;;4.25;3.55;;;15.60;99.90;;;;;;4963322;28;20522;-82
2023/07/20 04:15:19;;;;;;;4.70;3.40;;;15.70;99.90;;;;;;4959641;28;20046;-81
2023/07/20 04:17:45;;;;;;;6.47;3.75;;;15.70;99.90;;;;;;4961419;28;20295;-81
2023/07/20 04:20:11;;;;;;;3.88;3.47;;;15.80;99.90;;;;;;4959200;28;20026;-79
2023/07/20 04:22:37;;;;;;;3.20;2.90;;;15.80;99.90;;;;;;4957167;28;20113;-80
2023/07/20 04:25:04;;;;;;;3.92;3.00;;;15.80;99.90;;;;;;4966901;28;20079;-80
2023/07/20 04:27:30;;;;;;;3.92;3.40;;;15.90;99.90;;;;;;4960919;28;20510;-81
2023/07/20 04:29:59;;;;;;;4.15;3.22;;;15.90;99.90;;;;;;4961553;28;20029;-82
2023/07/20 04:32:26;;;;;;;5.43;3.63;;;15.90;99.90;;;;;;4972422;28;20028;-80
2023/07/20 04:34:51;;;;;;;4.10;3.50;;;15.90;99.90;;;;;;4960229;28;20027;-79
2023/07/20 04:37:18;;;;;;;4.18;3.75;;;15.90;99.90;;;;;;4952602;28;20517;-80
2023/07/20 04:39:46;;;;;;;5.45;3.50;;;15.90;99.90;;;;;;4952478;28;20454;-79
2023/07/20 04:42:11;;;;;;;4.32;3.08;;;15.90;99.90;;;;;;4954402;28;20082;-79
2023/07/20 04:44:38;;;;;;;4.90;2.97;;;15.90;99.90;;;;;;4964747;28;20031;-79
2023/07/20 04:47:04;;;;;;;6.13;3.50;;;16.00;99.90;;;;;;4958783;28;20043;-79
2023/07/20 04:49:33;;;;;;;3.38;2.80;;;16.00;99.90;;;;;;4954613;28;20050;-79
2023/07/20 04:51:59;;;;;;;4.63;3.70;;;16.00;99.90;;;;;;4959332;28;20035;-80
2023/07/20 04:54:26;;;;;;;4.43;3.38;;;16.10;99.90;;;;;;4964376;28;20097;-80
2023/07/20 04:57:12;;;;;;;3.97;3.10;;;16.10;99.90;;;;;;4963789;28;20105;-79
2023/07/20 04:59:43;;;;;;;4.32;3.00;;;16.10;99.90;;;;;;4964522;28;20346;-81
2023/07/20 05:02:09;;;;;;;3.45;2.83;;;16.20;99.90;;;;;;4962334;28;20046;-81
2023/07/20 05:04:35;;;;;;;5.38;3.35;;;16.20;99.90;;;;;;4965002;28;20027;-80
2023/07/20 05:07:01;;;;;;;3.47;3.17;;;16.20;99.90;;;;;;4962372;28;20034;-79
2023/07/20 05:09:26;;;;;;;5.53;3.40;;;16.20;99.90;;;;;;4977940;28;20142;-79
2023/07/20 05:11:52;;;;;;;3.30;3.00;;;16.20;99.90;;;;;;4963082;28;20024;-80
2023/07/20 05:14:18;;;;;;;6.85;3.30;;;16.20;99.90;;;;;;4963555;28;20046;-79
2023/07/20 05:16:45;;;;;;;5.70;2.83;;;16.20;99.90;;;;;;4962344;28;20045;-80
2023/07/20 05:19:10;;;;;;;4.60;3.55;;;16.30;99.90;;;;;;4963972;28;20031;-80
2023/07/20 05:21:36;;;;;;;5.15;3.00;;;16.40;99.90;;;;;;4978677;28;20027;-79
2023/07/20 05:24:02;;;;;;;3.83;3.42;;;16.50;99.90;;;;;;4954158;28;20118;-80
2023/07/20 05:26:28;;;;;;;4.10;3.03;;;16.50;99.90;;;;;;4952883;28;20035;-81
2023/07/20 05:28:54;;;;;;;6.38;3.53;;;16.60;99.90;;;;;;4965216;28;20050;-82
2023/07/20 05:31:20;;;;;;;3.38;2.90;;;16.70;99.90;;;;;;4960443;28;20524;-79
2023/07/20 05:33:45;;;;;;;3.92;2.95;;;16.80;99.90;;;;;;4958355;28;20150;-79
2023/07/20 05:36:11;;;;;;;4.13;3.13;;;17.00;99.90;;;;;;4959809;28;20039;-79
2023/07/20 05:38:37;;;;;;;4.72;3.10;;;17.20;99.90;;;;;;4961189;28;20038;-79
2023/07/20 05:41:03;;;;;;;4.03;3.08;;;17.40;99.90;;;;;;4956584;28;20027;-78
2023/07/20 05:43:30;;;;;;;4.60;3.13;;;17.40;99.90;;;;;;4961860;28;20522;-77
2023/07/20 05:45:55;;;;;;;4.63;2.88;;;17.50;99.90;;;;;;4958395;28;20038;-79
2023/07/20 05:48:21;;;;;;;4.38;2.85;;;17.50;99.90;;;;;;4963912;28;20117;-79
2023/07/20 05:50:47;;;;;;;3.38;2.90;;;17.50;99.90;;;;;;4960029;28;20098;-80
2023/07/20 05:53:13;;;;;;;4.88;2.80;;;17.50;99.90;;;;;;4955954;28;20102;-79
2023/07/20 05:55:39;;;;;;;4.63;3.10;;;17.80;99.90;;;;;;4953454;28;20119;-80
2023/07/20 05:58:05;;;;;;;5.55;3.10;;;18.10;99.90;;;;;;4962946;28;20067;-78
2023/07/20 06:00:31;;;;;;;2.95;2.65;;;18.50;99.90;;;;;;4954365;28;20077;-79
2023/07/20 06:02:57;;;;;;;3.17;2.88;;;18.90;99.90;;;;;;4955583;28;20406;-79
2023/07/20 06:05:23;;;;;;;4.22;2.83;;;19.20;99.90;;;;;;4959727;28;20027;-79
2023/07/20 06:07:50;;;;;;;8.13;2.80;;;19.50;99.90;;;;;;4960306;28;20062;-79
2023/07/20 06:10:34;;;;;;;5.22;2.47;;;19.90;99.90;;;;;;4957940;28;20100;-80
2023/07/20 06:13:00;;;;;;;6.05;2.65;;;20.30;99.90;;;;;;4961177;28;20055;-80
2023/07/20 06:15:27;;;;;;;2.92;2.60;;;20.60;99.90;;;;;;4962242;28;20027;-80
2023/07/20 06:17:55;;;;;;;2.78;2.20;;;20.90;99.90;;;;;;4961138;28;20070;-81
2023/07/20 06:20:22;;;;;;;4.57;2.20;;;21.00;99.90;;;;;;4961750;28;20031;-79
2023/07/20 06:22:48;;;;;;;3.60;2.60;;;21.20;99.90;;;;;;4963531;28;20043;-81
2023/07/20 06:25:14;;;;;;;3.38;2.65;;;21.10;99.90;;;;;;4978164;28;20043;-80
2023/07/20 06:27:39;;;;;;;3.83;2.30;;;21.10;99.90;;;;;;4956979;29;20031;-81
2023/07/20 06:30:06;;;;;;;4.07;2.20;;;21.10;99.90;;;;;;4968015;28;20070;-83
2023/07/20 06:32:32;;;;;;;6.30;2.63;;;20.80;99.90;;;;;;4970168;28;20041;-82
2023/07/20 06:34:58;;;;;;;5.93;2.60;;;20.70;99.90;;;;;;4964746;28;20085;-82
2023/07/20 06:37:24;;;;;;;3.15;2.10;;;20.50;99.90;;;;;;4953532;28;20102;-83
2023/07/20 06:39:49;;;;;;;4.60;2.70;;;20.50;99.90;;;;;;4956702;28;20043;-83
2023/07/20 06:42:15;;;;;;;3.20;2.00;;;20.40;99.90;;;;;;4957402;28;20023;-81
2023/07/20 06:44:41;;;;;;;6.50;2.42;;;20.50;99.90;;;;;;4958911;28;20031;-83
2023/07/20 06:47:07;;;;;;;3.00;2.20;;;20.50;99.90;;;;;;4958009;28;20043;-82
2023/07/20 06:49:33;;;;;;;3.80;2.30;;;20.50;99.90;;;;;;4960120;28;20046;-82
2023/07/20 06:51:59;;;;;;;1.95;1.75;;;20.50;99.90;;;;;;4953742;28;20035;-83
2023/07/20 06:54:24;;;;;;;3.95;2.30;;;20.40;99.90;;;;;;4948951;28;20047;-80
2023/07/20 06:56:50;;;;;;;3.83;2.70;;;20.50;99.90;;;;;;4951925;28;20027;-81
2023/07/20 06:59:16;;;;;;;5.00;1.85;;;20.80;99.90;;;;;;4967367;28;20019;-81
2023/07/20 07:01:42;;;;;;;4.50;2.00;;;21.30;99.70;;;;;;4969092;28;20177;-83
2023/07/20 07:04:08;;;;;;;4.07;2.33;;;21.50;99.00;;;;;;4967349;28;20062;-81
2023/07/20 07:06:34;;;;;;;4.35;2.10;;;21.50;97.60;;;;;;4968426;28;20067;-84
2023/07/20 07:09:00;;;;;;;3.08;2.45;;;21.50;98.60;;;;;;4965636;28;20043;-81
2023/07/20 07:11:26;;;;;;;2.58;1.90;;;21.80;98.10;;;;;;4962467;28;20049;-82
2023/07/20 07:13:52;;;;;;;2.80;2.15;;;22.10;97.20;;;;;;4960172;28;20475;-82
2023/07/20 07:16:19;;;;;;;2.55;1.95;;;22.20;95.80;;;;;;4958137;28;20031;-80
2023/07/20 07:18:45;;;;;;;2.53;1.90;;;22.10;95.70;;;;;;4968008;28;20482;-80
2023/07/20 07:21:11;;;;;;;4.68;2.00;;;22.20;96.30;;;;;;4970763;28;20061;-81
2023/07/20 07:23:40;;;;;;;2.35;1.80;;;22.10;94.40;;;;;;4965933;28;20043;-79
2023/07/20 07:26:06;;;;;;;2.00;1.85;;;22.00;95.10;;;;;;4963713;28;20114;-79
2023/07/20 07:28:32;;;;;;;3.70;2.20;;;22.10;95.20;;;;;;4963466;28;20042;-80
2023/07/20 07:30:58;;;;;;;2.97;2.10;;;22.20;95.00;;;;;;4958219;28;20023;-81
2023/07/20 07:33:24;;;;;;;2.92;1.60;;;22.20;92.10;;;;;;4962624;28;20063;-79
2023/07/20 07:35:52;;;;;;;4.18;1.90;;;22.20;93.70;;;;;;4954700;28;20058;-81
2023/07/20 07:38:19;;;;;;;4.25;1.70;;;22.20;92.60;;;;;;4952551;28;20583;-81
2023/07/20 07:40:45;;;;;;;4.22;2.00;;;22.20;93.80;;;;;;4954573;28;20042;-80
2023/07/20 07:43:11;;;;;;;1.92;1.65;;;22.10;92.80;;;;;;4957623;28;20031;-80
2023/07/20 07:45:37;;;;;;;3.97;1.70;;;22.10;94.00;;;;;;4957165;28;20040;-79
2023/07/20 07:48:04;;;;;;;3.20;1.70;;;22.10;93.60;;;;;;4955903;28;20066;-79
2023/07/20 07:50:30;;;;;;;3.92;1.60;;;22.30;91.50;;;;;;4957339;28;20040;-79
2023/07/20 07:52:56;;;;;;;2.80;1.50;;;22.40;92.40;;;;;;4959352;28;20078;-78
2023/07/20 07:55:22;;;;;;;1.60;1.40;;;22.70;90.30;;;;;;4949815;28;20454;-79
2023/07/20 07:57:48;;;;;;;1.85;1.38;;;22.80;91.40;;;;;;4950771;28;20034;-78
2023/07/20 08:00:15;;;;;;;3.40;1.70;;;23.10;90.50;;;;;;4945564;28;20306;-79
2023/07/20 08:03:09;;;;;;;1.65;1.25;;;23.40;87.20;;;;;;4953487;28;20049;-79
2023/07/20 08:10:10;;;;;;;2.85;1.33;;;24.00;82.70;;;;;;4922120;28;20051;-77
2023/07/20 08:27:34;;;;;;;2.45;1.50;;;23.80;79.40;;;;;;4903549;29;20072;-81
2023/07/20 08:30:00;;;;;;;2.00;1.60;;;23.20;80.70;;;;;;4916413;29;20044;-80
2023/07/20 08:32:32;;;;;;;2.78;1.45;;;22.90;81.80;;;;;;4946390;28;20051;-81
2023/07/20 08:34:57;;;;;;;3.42;1.60;;;22.90;83.30;;;;;;4954367;28;20054;-81
2023/07/20 08:37:23;;;;;;;2.20;1.40;;;23.00;83.30;;;;;;4958843;28;20101;-79
2023/07/20 08:39:49;;;;;;;1.50;1.40;;;23.10;83.40;;;;;;4958949;28;20031;-79
2023/07/20 08:42:16;;;;;;;2.65;1.40;;;23.10;83.20;;;;;;4950242;28;20070;-79
2023/07/20 08:45:01;;;;;;;2.08;1.30;;;23.10;83.10;;;;;;4954169;28;20046;-82
2023/07/20 08:47:27;;;;;;;1.48;1.20;;;23.10;79.70;;;;;;4948847;28;20031;-78
2023/07/20 08:49:54;;;;;;;4.45;1.52;;;23.10;80.90;;;;;;4955576;28;20104;-79
2023/07/20 08:52:20;;;;;;;3.42;1.63;;;23.20;80.50;;;;;;4959961;28;20038;-80
2023/07/20 08:54:46;;;;;;;1.15;1.10;;;23.40;84.90;;;;;;4957629;28;20121;-80
2023/07/20 08:57:14;;;;;;;2.40;1.20;;;23.40;78.00;;;;;;4955574;28;20043;-79
2023/07/20 08:59:41;;;;;;;2.05;1.15;;;23.40;78.10;;;;;;4952972;28;20498;-78
2023/07/20 09:02:08;;;;;;;2.50;1.40;;;23.40;79.90;;;;;;4951786;28;20375;-79
2023/07/20 09:04:34;;;;;;;2.13;1.30;;;23.50;74.40;;;;;;4956073;28;20035;-79
2023/07/20 09:07:01;;;;;;;4.97;1.42;;;23.60;78.00;;;;;;4954256;28;20035;-80
2023/07/20 09:09:27;;;;;;;1.58;1.30;;;23.60;77.70;;;;;;4954458;28;20046;-80
2023/07/20 09:11:53;;;;;;;1.98;1.50;;;23.50;77.80;;;;;;4956143;28;20117;-78
2023/07/20 09:14:19;;;;;;;1.70;1.10;;;23.40;76.90;;;;;;4950929;28;20047;-79
2023/07/20 09:16:54;;;;;;;1.38;1.27;;;23.30;76.60;;;;;;4961910;28;20122;-80
2023/07/20 09:19:20;;;;;;;2.35;1.50;;;23.30;74.70;;;;;;4964967;28;20058;-77
2023/07/20 09:21:51;;;;;;;2.00;1.50;;;23.20;76.80;;;;;;4958351;28;20023;-81
2023/07/20 09:24:18;;;;;;;2.08;1.40;;;23.10;76.80;;;;;;4955698;28;20032;-78
2023/07/20 09:26:48;;;;;;;3.33;1.38;;;23.00;77.70;;;;;;4959715;28;20035;-80
2023/07/20 09:29:14;;;;;;;2.92;1.52;;;23.00;76.50;;;;;;4959908;28;20093;-80
2023/07/20 09:31:40;;;;;;;1.95;1.33;;;23.10;80.10;;;;;;4959025;28;20611;-80
2023/07/20 09:34:07;;;;;;;3.83;1.42;;;23.20;79.00;;;;;;4961641;28;20053;-80
2023/07/20 09:36:36;;;;;;;2.72;1.30;;;23.20;75.20;;;;;;4963389;28;20502;-79
2023/07/20 09:39:04;;;;;;;2.97;1.30;;;23.10;76.00;;;;;;4953649;29;20114;-79
2023/07/20 09:41:30;;;;;;;3.60;1.45;;;23.00;75.20;;;;;;4958326;28;20055;-78
2023/07/20 09:43:55;;;;;;;1.30;0.88;;;22.90;75.10;;;;;;4956918;28;20650;-80
2023/07/20 09:46:22;;;;;;;8.43;6.13;;;22.90;74.90;;;;;;4965728;28;20039;-80
2023/07/20 09:48:54;;;;;;;1.75;1.50;;;23.00;74.60;;;;;;4963971;28;20081;-78
2023/07/20 09:51:24;;;;;;;1.35;0.98;;;22.90;73.60;;;;;;4959309;28;20028;-80
2023/07/20 09:53:53;;;;;;;1.98;1.10;;;23.00;71.10;;;;;;4955759;28;20394;-78
2023/07/20 09:56:23;;;;;;;1.35;1.25;;;23.10;74.30;;;;;;4954516;28;20054;-79
2023/07/20 09:58:48;;;;;;;1.40;1.20;;;23.30;72.90;;;;;;4959348;29;20028;-78
2023/07/20 10:01:20;;;;;;;1.38;1.02;;;23.50;76.10;;;;;;4959052;28;20086;-78
2023/07/20 10:03:47;;;;;;;1.40;1.30;;;23.70;74.80;;;;;;4957376;28;20506;-80
2023/07/20 10:06:20;;;;;;;1.27;1.17;;;23.80;74.80;;;;;;4949026;28;20150;-78
2023/07/20 10:08:48;;;;;;;2.35;1.20;;;24.00;75.00;;;;;;4954637;28;20035;-80
2023/07/20 10:11:15;;;;;;;1.70;1.08;;;24.10;70.10;;;;;;4956225;28;20035;-80
2023/07/20 10:13:44;;;;;;;1.40;1.15;;;24.10;69.20;;;;;;4958151;28;20059;-80
2023/07/20 10:16:11;;;;;;;3.70;1.48;;;24.00;70.60;;;;;;4958666;28;20126;-81
2023/07/20 10:18:56;;;;;;;1.27;1.15;;;23.90;70.70;;;;;;4956218;28;20039;-79
2023/07/20 10:21:25;;;;;;;2.22;1.38;;;23.60;69.40;;;;;;4966147;28;20603;-79
2023/07/20 10:23:51;;;;;;;1.20;1.10;;;23.40;69.70;;;;;;4968672;28;20514;-80
2023/07/20 10:26:17;;;;;;;4.18;1.20;;;23.40;72.20;;;;;;4964656;28;20038;-79
2023/07/20 10:28:43;;;;;;;1.92;1.25;;;23.40;72.10;;;;;;4966842;28;20040;-80
2023/07/20 10:31:10;;;;;;;1.52;1.23;;;23.50;73.30;;;;;;4967383;28;20031;-80
2023/07/20 10:33:37;;;;;;;2.00;1.30;;;23.70;73.90;;;;;;4963370;28;20039;-79
2023/07/20 10:36:05;;;;;;;1.85;0.98;;;24.00;72.90;;;;;;4981690;28;20023;-80
2023/07/20 10:38:42;;;;;;;2.65;1.20;;;24.30;71.30;;;;;;4966496;28;20050;-80
2023/07/20 10:41:24;;;;;;;2.03;1.30;;;24.60;70.20;;;;;;4966148;28;20520;-79
2023/07/20 10:43:50;;;;;;;1.67;1.20;;;24.70;63.40;;;;;;4956894;28;20047;-79
2023/07/20 10:46:38;;;;;;;1.35;1.10;;;24.70;65.50;;;;;;4966712;28;20038;-78
2023/07/20 10:49:09;;;;;;;1.70;1.27;;;24.50;64.00;;;;;;4961299;28;20097;-78
2023/07/20 10:51:48;;;;;;;1.60;1.00;;;24.30;69.00;;;;;;4963452;28;20406;-78
2023/07/20 10:54:17;;;;;;;1.38;1.15;;;24.20;69.10;;;;;;4960022;28;20042;-77
2023/07/20 10:59:21;;;;;;;1.33;1.13;;;24.10;65.70;;;;;;4919850;29;20679;-80
2023/07/20 11:01:49;;;;;;;2.70;1.15;;;24.20;65.70;;;;;;4901401;29;20040;-80
2023/07/20 11:04:16;;;;;;;1.38;1.15;;;24.10;68.10;;;;;;4927820;29;20028;-80
2023/07/20 11:06:46;;;;;;;1.85;1.17;;;24.20;65.50;;;;;;4912718;29;20051;-79
2023/07/20 11:09:14;;;;;;;2.28;1.35;;;24.20;66.40;;;;;;4927102;29;20459;-80
2023/07/20 11:11:48;;;;;;;2.75;1.00;;;24.40;63.10;;;;;;4913978;29;20048;-80
2023/07/20 11:14:24;;;;;;;2.88;1.20;;;24.60;63.10;;;;;;4914832;29;20122;-80
2023/07/20 11:16:51;;;;;;;1.70;1.23;;;24.80;63.40;;;;;;4917419;29;20075;-79
2023/07/20 11:19:25;;;;;;;2.85;1.20;;;25.00;63.30;;;;;;4918220;29;20091;-79
2023/07/20 11:21:55;;;;;;;1.70;1.13;;;25.10;63.10;;;;;;4909998;29;20031;-79
2023/07/20 11:24:21;;;;;;;2.03;1.30;;;25.00;61.70;;;;;;4913861;29;20043;-80
2023/07/20 11:26:49;;;;;;;2.95;1.33;;;24.90;62.50;;;;;;4911292;29;20570;-81
2023/07/20 11:29:17;;;;;;;1.25;1.10;;;24.90;63.60;;;;;;4927649;29;20036;-81
2023/07/20 11:31:44;;;;;;;2.00;1.20;;;24.70;62.10;;;;;;4910334;29;20477;-80
2023/07/20 11:34:12;;;;;;;2.45;1.23;;;24.50;59.50;;;;;;4893359;29;20516;-79
2023/07/20 11:36:46;;;;;;;2.83;1.08;;;24.40;64.60;;;;;;4912120;29;20091;-79
2023/07/20 11:39:19;;;;;;;1.60;1.10;;;24.40;65.70;;;;;;4916420;29;20029;-80
2023/07/20 11:41:50;;;;;;;1.70;1.10;;;24.40;66.40;;;;;;4913207;29;20028;-81
2023/07/20 11:44:26;;;;;;;1.98;1.13;;;24.40;65.60;;;;;;4923023;29;20036;-79
2023/07/20 11:47:10;;;;;;;3.55;1.60;;;24.40;67.50;;;;;;4915307;29;20032;-77
2023/07/20 11:49:40;;;;;;;1.50;1.15;;;24.40;68.00;;;;;;4917252;29;20034;-78
2023/07/20 11:52:11;;;;;;;3.38;1.48;;;24.50;67.70;;;;;;4919579;29;20028;-80
2023/07/20 11:54:41;;;;;;;3.00;1.55;;;24.50;64.30;;;;;;4912201;29;20047;-80
2023/07/20 11:57:07;;;;;;;2.33;1.23;;;24.50;66.00;;;;;;4913078;29;20075;-79
2023/07/20 11:59:33;;;;;;;3.35;1.70;;;24.50;67.60;;;;;;4913309;29;20040;-79
2023/07/20 12:02:02;;;;;;;2.75;1.95;;;24.40;69.80;;;;;;4913035;29;20608;-80
2023/07/20 12:04:29;;;;;;;1.80;1.30;;;24.50;69.90;;;;;;4910305;29;20035;-79
2023/07/20 12:06:55;;;;;;;2.55;1.50;;;24.50;70.30;;;;;;4916879;29;20115;-77
2023/07/20 12:09:21;;;;;;;2.28;1.45;;;24.40;67.00;;;;;;4913341;29;20040;-79
2023/07/20 12:11:49;;;;;;;2.67;1.33;;;24.40;69.40;;;;;;4908339;29;20067;-77
2023/07/20 12:14:16;;;;;;;4.22;1.90;;;24.40;69.00;;;;;;4931526;29;20028;-78
2023/07/20 12:16:41;;;;;;;2.53;1.40;;;24.40;65.60;;;;;;4913172;29;20085;-78
2023/07/20 12:19:10;;;;;;;1.70;1.48;;;24.20;69.10;;;;;;4913049;29;20088;-79
2023/07/20 12:21:36;;;;;;;2.20;1.52;;;24.20;69.60;;;;;;4911187;29;20490;-79
2023/07/20 12:24:03;;;;;;;2.30;1.50;;;24.20;65.70;;;;;;4919152;29;20075;-78
2023/07/20 12:26:30;;;;;;;2.70;1.20;;;24.20;65.60;;;;;;4929626;29;20103;-77
2023/07/20 12:28:56;;;;;;;2.35;1.15;;;24.10;66.00;;;;;;4921141;29;20075;-78
2023/07/20 12:31:24;;;;;;;1.42;1.30;;;24.00;65.10;;;;;;4918171;29;20135;-79
2023/07/20 12:33:55;;;;;;;6.57;1.27;;;24.00;69.00;;;;;;4915159;29;20028;-78
2023/07/20 12:36:21;;;;;;;1.80;1.38;;;24.10;67.70;;;;;;4922842;29;20023;-79
2023/07/20 12:38:46;;;;;;;1.98;1.50;;;24.10;68.50;;;;;;4917812;29;20029;-78
2023/07/20 12:41:13;;;;;;;2.60;1.50;;;24.20;68.20;;;;;;4923022;29;20501;-79
2023/07/20 12:43:43;;;;;;;3.28;1.42;;;24.20;66.60;;;;;;4924161;29;20036;-78
2023/07/20 12:46:10;;;;;;;1.70;1.40;;;24.30;64.30;;;;;;4921161;29;20387;-79
2023/07/20 12:48:41;;;;;;;2.53;1.50;;;24.40;67.30;;;;;;4917485;29;20040;-78
2023/07/20 12:51:08;;;;;;;2.00;1.40;;;24.40;66.40;;;;;;4910774;29;20032;-79
2023/07/20 12:53:33;;;;;;;3.70;1.73;;;24.20;62.90;;;;;;4926670;29;20033;-79
2023/07/20 12:56:00;;;;;;;1.90;1.77;;;24.20;65.60;;;;;;4926407;29;20039;-79
2023/07/20 12:58:25;;;;;;;2.03;1.40;;;24.20;63.30;;;;;;4914286;29;20024;-79
2023/07/20 13:00:51;;;;;;;1.58;1.48;;;23.90;62.40;;;;;;4912308;29;20417;-79
2023/07/20 13:03:19;;;;;;;1.50;1.27;;;23.90;68.30;;;;;;4916778;29;20027;-80
2023/07/20 13:05:48;;;;;;;2.58;1.40;;;24.10;69.40;;;;;;4915024;29;20032;-80
2023/07/20 13:08:15;;;;;;;2.05;1.50;;;24.30;65.70;;;;;;4913673;29;20091;-82
2023/07/20 13:10:41;;;;;;;2.42;1.52;;;24.60;64.70;;;;;;4916211;29;20036;-79
2023/07/20 13:13:07;;;;;;;4.47;1.27;;;24.90;65.20;;;;;;4916709;29;20035;-81